Time;durP1;ratioP1;P1;durP2;ratioP2;P2;SDS_P1;SDS_P2;PMS_P1;PMS_P2;Temp;Humidity;BMP_temperature;BMP_pressure;BME280_temperature;BME280_humidity;BME280_pressure;Samples;Min_cycle;Max_cycle;Signal;HPM_P1;HPM_P2
2021/12/05 00:22:36;;;;;;;21.17;7.10;;;3.60;99.90;;;;;;5047546;28;20457;-73
2021/12/05 00:25:06;;;;;;;20.03;5.97;;;3.60;99.90;;;;;;5044388;28;20488;-73
2021/12/05 00:27:39;;;;;;;18.53;6.60;;;3.60;99.90;;;;;;5046340;28;21032;-72
2021/12/05 00:30:34;;;;;;;29.17;9.30;;;3.60;99.90;;;;;;5030974;28;20950;-72
2021/12/05 00:40:59;;;;;;;35.57;15.47;;;3.70;99.90;;;;;;5045370;28;20454;-71
2021/12/05 00:59:56;;;;;;;21.67;12.33;;;3.80;99.90;;;;;;5048767;28;20561;-74
2021/12/05 01:15:29;;;;;;;6.53;4.50;;;3.90;99.90;;;;;;5045371;28;21069;-73
2021/12/05 01:18:05;;;;;;;6.27;5.10;;;3.90;99.90;;;;;;5045994;28;20454;-72
2021/12/05 01:20:40;;;;;;;3.57;3.00;;;3.90;99.90;;;;;;5045468;28;20590;-71
2021/12/05 01:23:16;;;;;;;4.90;2.77;;;3.90;99.90;;;;;;5051961;28;20446;-72
2021/12/05 01:25:47;;;;;;;10.53;2.97;;;3.90;99.90;;;;;;5045641;28;20829;-73
2021/12/05 01:43:57;;;;;;;2.93;1.53;;;4.00;99.90;;;;;;5045030;28;21041;-72
2021/12/05 01:46:33;;;;;;;;;;;;;;;;;;;;;
2021/12/05 01:59:21;;;;;;;2.53;1.53;;;3.90;99.90;;;;;;5047853;28;20454;-72
2021/12/05 02:10:47;;;;;;;3.07;1.70;;;3.80;99.90;;;;;;5049183;28;20619;-73
2021/12/05 02:42:59;;;;;;;2.10;1.10;;;3.60;99.90;;;;;;5047084;28;20446;-73
2021/12/05 02:45:26;;;;;;;1.70;1.17;;;3.50;99.90;;;;;;5046956;28;20466;-72
2021/12/05 02:47:54;;;;;;;5.93;2.00;;;3.50;99.90;;;;;;5027198;28;20471;-73
2021/12/05 02:50:25;;;;;;;1.60;1.50;;;3.50;99.90;;;;;;5047322;28;20481;-73
2021/12/05 02:52:56;;;;;;;1.50;1.40;;;3.50;99.90;;;;;;5030264;28;20442;-71
2021/12/05 02:55:37;;;;;;;5.43;2.07;;;3.50;99.90;;;;;;5042933;28;20454;-72
2021/12/05 02:58:14;;;;;;;1.83;1.57;;;3.40;99.90;;;;;;5049504;28;20812;-71
2021/12/05 03:00:44;;;;;;;2.90;1.47;;;3.40;99.90;;;;;;5047510;28;20472;-72
2021/12/05 03:03:25;;;;;;;3.80;1.77;;;3.40;99.90;;;;;;5030298;28;20489;-71
2021/12/05 03:06:19;;;;;;;2.37;1.30;;;3.30;99.90;;;;;;5027028;28;20475;-71
2021/12/05 03:08:49;;;;;;;3.13;1.33;;;3.30;99.90;;;;;;5033921;28;20454;-72
2021/12/05 03:11:17;;;;;;;2.97;1.60;;;3.30;99.90;;;;;;5046544;28;20804;-73
2021/12/05 03:13:43;;;;;;;3.77;1.93;;;3.30;99.90;;;;;;5027258;28;20447;-72
2021/12/05 03:16:12;;;;;;;1.00;0.93;;;3.30;99.90;;;;;;5027286;28;20463;-71
2021/12/05 03:18:38;;;;;;;3.13;1.33;;;3.30;99.90;;;;;;5029577;28;20503;-71
2021/12/05 03:21:07;;;;;;;3.13;1.50;;;3.30;99.90;;;;;;5046335;28;20489;-72
2021/12/05 03:23:40;;;;;;;3.90;1.70;;;3.30;99.90;;;;;;5033966;28;20457;-72
2021/12/05 03:26:08;;;;;;;6.00;1.47;;;3.40;99.90;;;;;;5047002;28;20478;-71
2021/12/05 03:28:35;;;;;;;1.50;1.40;;;3.40;99.90;;;;;;5047052;28;20946;-73
2021/12/05 03:31:01;;;;;;;0.97;0.93;;;3.40;99.90;;;;;;5030759;28;20467;-71
2021/12/05 03:33:29;;;;;;;1.03;0.97;;;3.40;99.90;;;;;;5046949;28;20454;-71
2021/12/05 03:35:56;;;;;;;0.83;0.73;;;3.40;99.90;;;;;;5048333;28;20450;-73
2021/12/05 03:38:23;;;;;;;3.47;1.27;;;3.50;99.90;;;;;;5049191;28;20458;-71
2021/12/05 03:40:49;;;;;;;1.63;1.10;;;3.50;99.90;;;;;;5027356;28;20450;-72
2021/12/05 03:43:20;;;;;;;4.70;1.87;;;3.50;99.90;;;;;;5058741;28;20480;-71
2021/12/05 03:45:52;;;;;;;1.43;1.00;;;3.50;99.90;;;;;;5070140;28;20445;-71
2021/12/05 03:48:22;;;;;;;2.10;1.60;;;3.50;99.90;;;;;;5062820;28;20584;-71
2021/12/05 03:50:49;;;;;;;1.17;0.87;;;3.50;99.90;;;;;;5046923;28;20453;-73
2021/12/05 03:53:16;;;;;;;1.23;1.10;;;3.60;99.90;;;;;;5033077;28;20454;-72
2021/12/05 03:55:46;;;;;;;5.00;1.47;;;3.50;99.90;;;;;;5033132;28;20447;-72
2021/12/05 03:58:13;;;;;;;1.60;1.07;;;3.60;99.90;;;;;;5050373;28;20854;-72
2021/12/05 04:00:41;;;;;;;2.60;1.10;;;3.60;99.90;;;;;;5048204;28;20520;-72
2021/12/05 04:03:14;;;;;;;0.70;0.70;;;3.60;99.90;;;;;;5049983;28;20481;-73
2021/12/05 04:05:40;;;;;;;1.53;1.33;;;3.60;99.90;;;;;;5049517;28;20857;-73
2021/12/05 04:08:12;;;;;;;1.20;1.00;;;3.60;99.90;;;;;;5050502;28;20461;-72
2021/12/05 04:10:41;;;;;;;1.43;1.30;;;3.70;99.90;;;;;;5032273;28;20438;-71
2021/12/05 04:13:07;;;;;;;1.47;1.37;;;3.70;99.90;;;;;;5049953;28;20442;-72
2021/12/05 04:15:34;;;;;;;1.73;1.23;;;3.70;99.90;;;;;;5049501;28;20457;-73
2021/12/05 04:18:00;;;;;;;1.57;1.47;;;3.70;99.90;;;;;;5047183;28;20982;-72
2021/12/05 04:20:27;;;;;;;1.60;1.37;;;3.70;99.90;;;;;;5048677;28;20443;-72
2021/12/05 04:22:54;;;;;;;1.00;0.90;;;3.70;99.90;;;;;;5031112;28;20558;-71
2021/12/05 04:25:21;;;;;;;4.70;1.47;;;3.70;99.90;;;;;;5045943;28;20522;-75
2021/12/05 04:27:49;;;;;;;1.73;0.90;;;3.80;99.90;;;;;;5025953;28;20460;-73
2021/12/05 04:30:19;;;;;;;2.33;0.90;;;3.80;99.90;;;;;;5046716;28;20490;-73
2021/12/05 04:32:45;;;;;;;2.33;1.27;;;3.80;99.90;;;;;;5031902;28;20457;-70
2021/12/05 04:35:11;;;;;;;2.03;1.00;;;3.80;99.90;;;;;;5032653;28;20847;-72
2021/12/05 04:37:37;;;;;;;1.50;1.37;;;3.80;99.90;;;;;;5029178;28;20340;-72
2021/12/05 04:40:04;;;;;;;4.63;1.60;;;3.80;99.90;;;;;;5046549;28;20242;-72
2021/12/05 04:42:31;;;;;;;3.00;1.70;;;3.80;99.90;;;;;;5034059;28;20304;-71
2021/12/05 04:44:57;;;;;;;1.23;1.13;;;3.80;99.90;;;;;;5057128;28;20549;-71
2021/12/05 04:47:25;;;;;;;3.27;2.13;;;3.80;99.90;;;;;;5048380;28;20314;-72
2021/12/05 04:49:52;;;;;;;1.50;1.40;;;3.90;99.90;;;;;;5048709;28;21049;-71
2021/12/05 04:52:18;;;;;;;2.80;1.40;;;3.90;99.90;;;;;;5048630;28;20530;-71
2021/12/05 04:54:44;;;;;;;2.83;1.70;;;3.90;99.90;;;;;;5032196;28;20231;-73
2021/12/05 04:57:11;;;;;;;2.43;2.10;;;3.90;99.90;;;;;;5032328;28;20215;-73
2021/12/05 04:59:38;;;;;;;2.20;1.77;;;3.90;99.90;;;;;;5048382;28;20474;-71
2021/12/05 05:02:07;;;;;;;1.93;1.80;;;3.90;99.90;;;;;;5032848;28;20485;-72
2021/12/05 05:04:42;;;;;;;3.30;2.10;;;3.90;99.90;;;;;;5048046;28;20462;-72
2021/12/05 05:07:15;;;;;;;3.67;2.30;;;3.90;99.90;;;;;;5048831;28;20478;-72
2021/12/05 05:09:41;;;;;;;2.90;1.90;;;3.90;99.90;;;;;;5050165;28;21374;-72
2021/12/05 05:12:08;;;;;;;3.47;1.73;;;3.90;99.90;;;;;;5049430;28;20489;-71
2021/12/05 05:14:34;;;;;;;2.90;1.80;;;3.90;99.90;;;;;;5046836;28;20826;-73
2021/12/05 05:17:00;;;;;;;3.93;1.93;;;4.00;99.90;;;;;;5048505;28;20461;-73
2021/12/05 05:19:31;;;;;;;2.53;1.57;;;4.00;99.90;;;;;;5030764;28;20243;-72
2021/12/05 05:43:54;;;;;;;2.40;1.33;;;4.00;99.90;;;;;;5048830;28;20461;-71
2021/12/05 05:46:26;;;;;;;2.10;1.63;;;4.10;99.90;;;;;;5045106;28;20586;-74
2021/12/05 05:51:24;;;;;;;2.50;1.90;;;4.10;99.90;;;;;;5044773;28;20475;-72
2021/12/05 05:53:49;;;;;;;1.60;1.50;;;4.10;99.90;;;;;;5031891;28;20551;-70
2021/12/05 05:56:23;;;;;;;1.43;1.33;;;4.10;99.90;;;;;;5051487;28;20486;-73
2021/12/05 05:58:55;;;;;;;4.03;1.60;;;4.10;99.90;;;;;;5049013;28;20244;-71
2021/12/05 06:01:40;;;;;;;5.73;1.97;;;4.10;99.90;;;;;;5047752;28;20468;-72
2021/12/05 06:04:07;;;;;;;9.03;1.73;;;4.10;99.90;;;;;;5029616;28;20454;-73
2021/12/05 06:06:33;;;;;;;1.40;1.10;;;4.20;99.90;;;;;;5026767;28;20621;-73
2021/12/05 06:09:01;;;;;;;5.50;1.07;;;4.10;99.90;;;;;;5048832;28;20466;-72
2021/12/05 06:11:26;;;;;;;2.33;1.90;;;4.10;99.90;;;;;;5045705;28;20807;-72
2021/12/05 06:13:53;;;;;;;2.23;1.53;;;4.20;99.90;;;;;;5047857;28;20468;-74
2021/12/05 06:16:20;;;;;;;2.40;1.87;;;4.10;99.90;;;;;;5047752;28;20307;-75
2021/12/05 06:18:47;;;;;;;2.10;1.30;;;4.20;99.90;;;;;;5031423;28;20447;-72
2021/12/05 06:21:14;;;;;;;1.60;1.47;;;4.20;99.90;;;;;;5048434;28;20474;-72
2021/12/05 06:23:41;;;;;;;4.10;1.53;;;4.20;99.90;;;;;;5051659;28;20449;-72
2021/12/05 06:26:09;;;;;;;1.60;1.30;;;4.20;99.90;;;;;;5047366;28;20486;-72
2021/12/05 06:28:44;;;;;;;1.30;1.20;;;4.20;99.90;;;;;;5031192;28;20497;-71
2021/12/05 06:47:03;;;;;;;1.00;0.90;;;4.20;99.90;;;;;;5027234;28;20601;-73
2021/12/05 06:49:28;;;;;;;1.77;1.37;;;4.20;99.90;;;;;;5011072;28;20507;-72
2021/12/05 06:51:54;;;;;;;2.03;1.10;;;4.20;99.90;;;;;;5011219;28;20483;-71
2021/12/05 06:54:22;;;;;;;1.13;1.03;;;4.20;99.90;;;;;;5010920;28;20216;-73
2021/12/05 06:56:48;;;;;;;5.53;1.50;;;4.20;99.90;;;;;;5010643;28;20235;-73
2021/12/05 06:59:13;;;;;;;5.23;1.00;;;4.20;99.90;;;;;;5021324;28;20455;-71
2021/12/05 07:01:39;;;;;;;1.17;0.97;;;4.20;99.90;;;;;;5027138;28;20579;-71
2021/12/05 07:04:20;;;;;;;1.33;1.23;;;4.20;99.90;;;;;;5042783;28;20307;-71
2021/12/05 07:06:46;;;;;;;1.13;0.87;;;4.30;99.90;;;;;;5044022;28;20458;-72
2021/12/05 07:09:12;;;;;;;1.87;1.10;;;4.30;99.90;;;;;;5030793;28;20978;-71
2021/12/05 07:19:24;;;;;;;;;;;;;;;;;;;;;
2021/12/05 07:40:26;;;;;;;5.23;3.17;;;4.40;99.90;;;;;;5051166;28;20921;-73
2021/12/05 07:42:56;;;;;;;3.17;2.43;;;4.40;99.90;;;;;;5052739;28;20526;-73
2021/12/05 07:45:31;;;;;;;4.80;2.20;;;4.40;99.90;;;;;;5048639;28;20458;-73
2021/12/05 07:48:02;;;;;;;3.90;2.33;;;4.40;99.90;;;;;;5029983;28;20486;-73
2021/12/05 07:50:42;;;;;;;2.13;1.93;;;4.40;99.90;;;;;;5049225;28;20533;-72
2021/12/05 07:53:16;;;;;;;3.87;1.83;;;4.40;99.90;;;;;;5033176;28;20973;-73
2021/12/05 07:55:44;;;;;;;3.80;1.63;;;4.40;99.90;;;;;;5047594;28;20459;-74
2021/12/05 08:00:49;;;;;;;3.57;2.07;;;4.40;99.90;;;;;;5050650;28;20522;-73
2021/12/05 08:16:57;;;;;;;3.17;1.60;;;4.50;99.90;;;;;;5047813;28;20504;-72
2021/12/05 08:19:23;;;;;;;1.60;1.50;;;4.50;99.90;;;;;;5047734;28;20504;-72
2021/12/05 08:21:55;;;;;;;1.50;1.40;;;4.50;99.90;;;;;;5047927;28;20969;-72
2021/12/05 08:24:25;;;;;;;1.47;1.23;;;4.50;99.90;;;;;;5044508;28;20279;-72
2021/12/05 08:26:52;;;;;;;2.40;1.17;;;4.50;99.90;;;;;;5046953;28;20458;-73
2021/12/05 08:29:24;;;;;;;1.03;1.03;;;4.50;99.90;;;;;;5047941;28;20565;-72
2021/12/05 09:23:23;;;;;;;1.70;1.47;;;4.70;99.90;;;;;;5043442;28;20477;-71
2021/12/05 10:12:07;;;;;;;1.27;1.27;;;5.70;99.90;;;;;;5029163;28;20454;-73
2021/12/05 10:14:47;;;;;;;6.43;2.17;;;5.80;99.90;;;;;;5029594;28;20475;-73
2021/12/05 10:36:14;;;;;;;1.17;1.07;;;6.40;99.90;;;;;;5049530;28;20467;-72
2021/12/05 10:38:50;;;;;;;4.40;2.17;;;6.40;99.90;;;;;;5048137;28;20462;-72
2021/12/05 10:41:34;;;;;;;1.70;1.30;;;6.40;99.90;;;;;;5031476;28;20454;-73
2021/12/05 10:44:07;;;;;;;3.83;1.40;;;6.40;99.90;;;;;;5031718;28;20458;-72
2021/12/05 10:46:34;;;;;;;2.20;1.67;;;6.30;99.90;;;;;;5050637;28;20473;-72
2021/12/05 10:49:04;;;;;;;1.60;1.50;;;6.30;99.90;;;;;;5050417;28;20498;-74
2021/12/05 10:51:34;;;;;;;1.80;1.67;;;6.20;99.90;;;;;;5034055;28;20447;-73
2021/12/05 10:54:21;;;;;;;2.20;1.33;;;6.20;99.90;;;;;;5049992;28;20457;-72
2021/12/05 10:56:55;;;;;;;1.93;1.43;;;6.20;99.90;;;;;;5049735;28;20477;-72
2021/12/05 10:59:31;;;;;;;2.40;1.33;;;6.20;99.90;;;;;;5029532;28;20461;-72
2021/12/05 11:02:06;;;;;;;1.53;1.43;;;6.20;99.90;;;;;;5047132;28;20455;-71
2021/12/05 11:04:35;;;;;;;1.40;1.07;;;6.20;99.90;;;;;;5044210;28;20974;-72
2021/12/05 11:07:07;;;;;;;2.43;1.63;;;6.10;99.90;;;;;;5039758;28;20481;-73
2021/12/05 11:09:57;;;;;;;2.20;1.60;;;6.10;99.90;;;;;;5030940;28;20538;-73
2021/12/05 11:12:35;;;;;;;2.33;1.40;;;6.10;99.90;;;;;;5049909;28;20466;-72
2021/12/05 11:15:04;;;;;;;66.70;28.17;;;6.10;99.90;;;;;;5049580;28;20473;-72
2021/12/05 11:17:37;;;;;;;53.33;27.70;;;6.10;99.90;;;;;;5047877;28;20473;-72
2021/12/05 11:20:02;;;;;;;21.03;11.80;;;6.10;99.90;;;;;;5049081;28;20462;-73
2021/12/05 11:22:32;;;;;;;18.17;11.30;;;6.10;99.90;;;;;;5050481;28;20986;-73
2021/12/05 11:25:01;;;;;;;17.80;12.10;;;6.10;99.90;;;;;;5050458;28;20298;-73
2021/12/05 11:27:35;;;;;;;9.60;5.53;;;6.10;99.90;;;;;;5051738;28;20470;-73
2021/12/05 11:30:10;;;;;;;2.73;1.77;;;6.10;99.90;;;;;;5035152;28;20521;-72
2021/12/05 11:33:01;;;;;;;2.23;1.50;;;6.20;99.90;;;;;;5051248;28;20470;-71
2021/12/05 11:35:31;;;;;;;2.90;1.77;;;6.20;99.90;;;;;;5051287;28;20840;-72
2021/12/05 11:38:19;;;;;;;2.10;1.00;;;6.20;99.90;;;;;;5051352;28;20461;-73
2021/12/05 11:40:54;;;;;;;1.60;1.20;;;6.20;99.90;;;;;;5050973;28;20454;-71
2021/12/05 11:43:25;;;;;;;3.20;2.40;;;6.20;99.90;;;;;;5042946;28;20463;-74
2021/12/05 11:46:07;;;;;;;8.00;5.70;;;6.20;99.90;;;;;;5043980;28;20454;-71
2021/12/05 11:48:38;;;;;;;10.37;6.40;;;6.20;99.90;;;;;;5049359;28;20457;-73
2021/12/05 11:51:41;;;;;;;6.40;3.60;;;6.20;99.90;;;;;;5033858;28;20447;-71
2021/12/05 11:54:13;;;;;;;2.03;1.70;;;6.20;99.90;;;;;;5025838;28;20446;-73
2021/12/05 11:56:56;;;;;;;5.33;3.00;;;6.20;99.90;;;;;;5030499;28;20446;-73
2021/12/05 11:59:39;;;;;;;12.80;7.40;;;6.20;99.90;;;;;;5048461;28;20458;-73
2021/12/05 12:02:18;;;;;;;9.90;6.03;;;6.30;99.90;;;;;;5047846;28;20454;-75
2021/12/05 12:04:53;;;;;;;18.43;10.60;;;6.30;99.90;;;;;;5049727;28;20442;-71
2021/12/05 12:07:27;;;;;;;15.33;10.63;;;6.30;99.90;;;;;;5047972;28;20501;-74
2021/12/05 12:10:00;;;;;;;14.93;10.07;;;6.30;99.90;;;;;;5047676;28;20462;-73
2021/12/05 12:12:26;;;;;;;7.30;5.20;;;6.30;99.90;;;;;;5046354;28;20577;-72
2021/12/05 12:14:52;;;;;;;2.10;1.93;;;6.30;99.90;;;;;;5027205;28;20576;-75
2021/12/05 12:17:18;;;;;;;3.27;1.80;;;6.30;99.90;;;;;;5047972;28;20220;-73
2021/12/05 12:19:48;;;;;;;1.53;1.43;;;6.20;99.90;;;;;;5048043;28;20462;-71
2021/12/05 12:22:18;;;;;;;1.57;1.33;;;6.30;99.90;;;;;;5027725;28;20483;-75
2021/12/05 12:24:44;;;;;;;4.40;1.47;;;6.30;99.90;;;;;;5050099;28;20454;-72
2021/12/05 12:27:12;;;;;;;3.70;2.20;;;6.30;99.90;;;;;;5047481;28;20474;-75
2021/12/05 12:29:38;;;;;;;3.20;2.17;;;6.40;99.90;;;;;;5046736;28;20277;-71
2021/12/05 12:32:12;;;;;;;21.00;11.77;;;6.50;99.90;;;;;;5028568;28;20455;-72
2021/12/05 12:34:40;;;;;;;80.57;35.63;;;6.40;99.90;;;;;;5028777;28;20447;-72
2021/12/05 12:37:10;;;;;;;66.93;31.63;;;6.50;99.90;;;;;;5036326;28;20569;-73
2021/12/05 12:39:48;;;;;;;28.83;16.30;;;6.50;99.90;;;;;;5045352;28;20513;-72
2021/12/05 12:42:25;;;;;;;23.27;9.50;;;6.50;99.90;;;;;;5046697;28;20458;-72
2021/12/05 12:45:13;;;;;;;13.57;7.90;;;6.50;99.90;;;;;;5027213;28;20469;-72
2021/12/05 12:47:52;;;;;;;11.97;6.47;;;6.50;99.90;;;;;;5044517;28;20478;-73
2021/12/05 12:50:52;;;;;;;10.17;5.10;;;6.50;99.90;;;;;;5024581;28;20573;-73
2021/12/05 12:53:26;;;;;;;4.70;2.80;;;6.60;99.90;;;;;;5010732;28;20483;-73
2021/12/05 12:55:57;;;;;;;1.20;1.10;;;6.60;99.90;;;;;;5030581;28;21095;-73
2021/12/05 12:58:47;;;;;;;1.80;1.40;;;6.70;99.90;;;;;;5024491;28;20471;-72
2021/12/05 13:01:52;;;;;;;1.43;1.30;;;6.70;99.90;;;;;;5028440;28;20544;-73
2021/12/05 13:12:41;;;;;;;0.93;0.80;;;6.70;99.90;;;;;;5044443;28;20997;-75
2021/12/05 13:15:29;;;;;;;0.93;0.93;;;6.70;99.90;;;;;;5043805;28;20466;-72
2021/12/05 13:17:59;;;;;;;0.70;0.70;;;6.70;99.90;;;;;;5041472;28;20481;-74
2021/12/05 13:20:28;;;;;;;1.43;0.90;;;6.70;99.90;;;;;;5044417;28;20474;-71
2021/12/05 13:23:04;;;;;;;1.43;0.90;;;6.70;99.90;;;;;;5048444;28;20457;-73
2021/12/05 13:25:32;;;;;;;2.00;1.00;;;6.70;99.90;;;;;;5043135;28;20462;-71
2021/12/05 13:28:27;;;;;;;0.83;0.80;;;6.70;99.90;;;;;;5045856;28;20478;-73
2021/12/05 13:30:54;;;;;;;1.90;0.80;;;6.70;99.90;;;;;;5044571;28;20446;-73
2021/12/05 13:33:24;;;;;;;1.40;1.10;;;6.70;99.90;;;;;;5044313;28;20454;-73
2021/12/05 13:35:57;;;;;;;0.80;0.70;;;6.70;99.90;;;;;;5045603;28;20476;-73
2021/12/05 13:38:33;;;;;;;1.33;0.90;;;6.70;99.90;;;;;;5043957;28;20462;-72
2021/12/05 13:41:21;;;;;;;1.17;0.80;;;6.70;99.90;;;;;;5027912;28;20457;-71
2021/12/05 13:43:59;;;;;;;1.00;0.80;;;6.60;99.90;;;;;;5056771;28;20941;-73
2021/12/05 13:46:42;;;;;;;1.27;0.63;;;6.60;99.90;;;;;;5043251;28;21025;-73
2021/12/05 13:49:41;;;;;;;1.33;0.80;;;6.60;99.90;;;;;;5028232;28;20539;-72
2021/12/05 13:52:32;;;;;;;1.63;0.90;;;6.70;99.90;;;;;;5022525;28;20449;-72
2021/12/05 13:55:35;;;;;;;2.77;1.90;;;6.70;99.90;;;;;;5043156;28;20474;-73
2021/12/05 13:58:25;;;;;;;5.80;2.90;;;6.70;99.90;;;;;;5061383;28;20453;-73
2021/12/05 14:00:59;;;;;;;4.90;2.40;;;6.70;99.90;;;;;;5031921;28;20452;-72
2021/12/05 14:03:44;;;;;;;2.47;2.20;;;6.70;99.90;;;;;;5043470;28;20834;-72
2021/12/05 14:06:31;;;;;;;2.80;1.93;;;6.70;99.90;;;;;;5044279;28;20538;-72
2021/12/05 14:09:23;;;;;;;3.17;1.50;;;6.70;99.90;;;;;;5042873;28;20454;-72
2021/12/05 14:12:07;;;;;;;2.93;1.97;;;6.70;99.90;;;;;;5037057;28;20921;-74
2021/12/05 14:14:44;;;;;;;2.93;2.27;;;6.70;99.90;;;;;;5038544;28;20462;-73
2021/12/05 14:17:16;;;;;;;4.97;3.33;;;6.70;99.90;;;;;;5039872;28;20459;-73
2021/12/05 14:19:44;;;;;;;3.80;2.70;;;6.70;99.90;;;;;;5034579;28;20462;-71
2021/12/05 14:22:12;;;;;;;2.00;1.30;;;6.60;99.90;;;;;;5043244;28;20870;-71
2021/12/05 14:24:43;;;;;;;1.33;1.23;;;6.60;99.90;;;;;;5060547;28;20455;-72
2021/12/05 14:27:16;;;;;;;3.40;1.97;;;6.60;99.90;;;;;;5065182;28;20472;-71
2021/12/05 14:29:48;;;;;;;2.67;2.00;;;6.60;99.90;;;;;;5038040;28;20978;-73
2021/12/05 14:32:28;;;;;;;3.97;1.67;;;6.60;99.90;;;;;;5042394;28;20461;-73
2021/12/05 14:35:01;;;;;;;1.40;1.10;;;6.60;99.90;;;;;;5034308;28;20846;-72
2021/12/05 14:37:31;;;;;;;1.50;1.40;;;6.60;99.90;;;;;;5031000;28;20466;-73
2021/12/05 14:40:04;;;;;;;2.30;1.50;;;6.60;99.90;;;;;;5042120;28;20458;-73
2021/12/05 14:42:32;;;;;;;1.53;1.30;;;6.60;99.90;;;;;;5058610;28;20562;-73
2021/12/05 14:45:11;;;;;;;7.33;1.90;;;6.60;99.90;;;;;;5046348;28;20474;-73
2021/12/05 14:47:39;;;;;;;5.23;4.13;;;6.60;99.90;;;;;;5043689;28;20486;-72
2021/12/05 14:50:11;;;;;;;4.83;3.77;;;6.60;99.90;;;;;;5043501;28;20455;-73
2021/12/05 14:52:39;;;;;;;12.07;7.37;;;6.60;99.90;;;;;;5043249;28;20463;-74
2021/12/05 14:55:09;;;;;;;6.60;4.63;;;6.60;99.90;;;;;;5043387;28;20462;-72
2021/12/05 14:57:41;;;;;;;6.83;4.40;;;6.60;99.90;;;;;;5044576;28;20525;-73
2021/12/05 15:00:10;;;;;;;5.47;3.63;;;6.70;99.90;;;;;;5043393;28;20464;-71
2021/12/05 15:02:37;;;;;;;4.70;2.60;;;6.70;99.90;;;;;;5026847;28;20490;-73
2021/12/05 15:05:07;;;;;;;6.60;3.03;;;6.70;99.90;;;;;;5027199;28;20892;-74
2021/12/05 15:07:33;;;;;;;5.60;2.80;;;6.70;99.90;;;;;;5044370;28;20577;-72
2021/12/05 15:09:59;;;;;;;3.40;2.10;;;6.60;99.90;;;;;;5043386;28;20965;-72
2021/12/05 15:12:29;;;;;;;2.40;2.10;;;6.60;99.90;;;;;;5023145;28;20247;-72
2021/12/05 15:14:57;;;;;;;2.20;1.47;;;6.60;99.90;;;;;;5026323;28;20466;-76
2021/12/05 15:17:38;;;;;;;2.10;1.50;;;6.60;99.90;;;;;;5043262;28;20474;-71
2021/12/05 15:20:06;;;;;;;4.50;1.80;;;6.60;99.90;;;;;;5043641;28;20515;-74
2021/12/05 15:22:32;;;;;;;1.87;1.40;;;6.60;99.90;;;;;;5043686;28;20471;-73
2021/12/05 15:25:00;;;;;;;2.03;1.33;;;6.60;99.90;;;;;;5064034;28;20466;-72
2021/12/05 15:27:30;;;;;;;1.67;1.57;;;6.60;99.90;;;;;;5065514;28;20243;-72
2021/12/05 15:30:28;;;;;;;1.30;1.20;;;6.60;99.90;;;;;;5031461;28;20466;-72
2021/12/05 15:33:00;;;;;;;3.03;1.63;;;6.60;99.90;;;;;;5046176;28;20461;-73
2021/12/05 15:35:27;;;;;;;5.17;2.27;;;6.70;99.90;;;;;;5029815;28;21052;-73
2021/12/05 15:38:07;;;;;;;3.47;2.33;;;6.70;99.90;;;;;;5049049;28;20534;-72
2021/12/05 15:40:35;;;;;;;2.50;2.30;;;6.60;99.90;;;;;;5047031;28;20462;-73
2021/12/05 15:43:07;;;;;;;2.73;2.00;;;6.70;99.90;;;;;;5030517;28;20454;-74
2021/12/05 15:45:34;;;;;;;3.73;2.33;;;6.60;99.90;;;;;;5029801;28;20458;-72
2021/12/05 15:48:00;;;;;;;2.97;2.60;;;6.70;99.90;;;;;;5047008;28;20586;-72
2021/12/05 15:50:31;;;;;;;4.23;2.40;;;6.70;99.90;;;;;;5046102;28;20492;-74
2021/12/05 15:53:01;;;;;;;3.23;2.40;;;6.70;99.90;;;;;;5046863;28;20477;-74
2021/12/05 15:55:31;;;;;;;4.00;2.63;;;6.70;99.90;;;;;;5026897;28;20471;-74
2021/12/05 15:58:08;;;;;;;5.10;3.17;;;6.70;99.90;;;;;;5044613;28;20463;-71
2021/12/05 16:01:05;;;;;;;3.60;2.90;;;6.70;99.90;;;;;;5046025;28;20462;-73
2021/12/05 16:04:00;;;;;;;3.07;2.77;;;6.70;99.90;;;;;;5016549;28;20463;-74
2021/12/05 16:06:38;;;;;;;4.20;3.57;;;6.70;99.90;;;;;;5042077;28;20467;-73
2021/12/05 16:09:12;;;;;;;5.40;3.63;;;6.70;99.90;;;;;;5028289;28;20459;-73
2021/12/05 16:11:37;;;;;;;8.13;4.33;;;6.70;99.90;;;;;;5025954;28;20809;-74
2021/12/05 16:14:03;;;;;;;8.43;4.53;;;6.60;99.90;;;;;;5062006;28;20464;-75
2021/12/05 16:16:29;;;;;;;8.93;5.07;;;6.60;99.90;;;;;;5046985;28;20707;-72
2021/12/05 16:19:01;;;;;;;7.43;4.53;;;6.60;99.90;;;;;;5048583;28;20215;-73
2021/12/05 16:21:31;;;;;;;7.07;4.80;;;6.60;99.90;;;;;;5044281;28;20996;-73
2021/12/05 16:24:04;;;;;;;5.50;4.10;;;6.60;99.90;;;;;;5047437;28;20813;-73
2021/12/05 16:26:30;;;;;;;7.00;4.50;;;6.60;99.90;;;;;;5046341;28;20454;-72
2021/12/05 16:29:10;;;;;;;7.10;4.50;;;6.60;99.90;;;;;;5029046;28;20843;-72
2021/12/05 16:31:41;;;;;;;7.67;4.47;;;6.60;99.90;;;;;;5046442;28;20450;-72
2021/12/05 16:34:09;;;;;;;8.80;5.80;;;6.60;99.90;;;;;;5044407;28;20474;-74
2021/12/05 16:36:40;;;;;;;9.10;5.97;;;6.60;99.90;;;;;;5047214;28;20553;-75
2021/12/05 16:39:05;;;;;;;9.70;6.57;;;6.60;99.90;;;;;;5039282;28;20466;-72
2021/12/05 16:41:31;;;;;;;11.57;7.40;;;6.60;99.90;;;;;;5046570;28;20493;-72
2021/12/05 16:44:03;;;;;;;8.73;6.23;;;6.60;99.90;;;;;;5060633;28;20227;-73
2021/12/05 16:46:37;;;;;;;10.47;6.60;;;6.50;99.90;;;;;;5065984;28;20470;-73
2021/12/05 16:49:06;;;;;;;13.80;8.10;;;6.50;99.90;;;;;;5067570;28;20456;-75
2021/12/05 16:52:02;;;;;;;15.07;9.70;;;6.50;99.90;;;;;;5065950;28;20793;-73
2021/12/05 16:54:36;;;;;;;10.10;6.50;;;6.50;99.90;;;;;;5046703;28;20502;-72
2021/12/05 16:57:18;;;;;;;7.13;4.80;;;6.50;99.90;;;;;;5065525;28;20457;-71
2021/12/05 16:59:47;;;;;;;7.70;4.90;;;6.50;99.90;;;;;;5045923;28;20477;-72
2021/12/05 17:02:31;;;;;;;6.37;5.13;;;6.50;99.90;;;;;;5046506;28;20458;-75
2021/12/05 17:05:32;;;;;;;5.47;4.97;;;6.50;99.90;;;;;;5045011;28;20454;-72
2021/12/05 17:08:17;;;;;;;6.37;5.43;;;6.40;99.90;;;;;;5042148;28;20468;-72
2021/12/05 17:10:48;;;;;;;7.73;5.20;;;6.40;99.90;;;;;;5048950;28;20884;-73
2021/12/05 17:13:42;;;;;;;8.03;5.33;;;6.40;99.90;;;;;;5031862;28;20516;-71
2021/12/05 17:16:27;;;;;;;8.73;5.20;;;6.40;99.90;;;;;;5024078;28;20974;-73
2021/12/05 17:18:58;;;;;;;12.30;7.47;;;6.40;99.90;;;;;;5046909;28;20505;-73
2021/12/05 17:21:36;;;;;;;9.67;6.73;;;6.40;99.90;;;;;;5038333;28;20462;-74
2021/12/05 17:24:14;;;;;;;6.23;4.83;;;6.40;99.90;;;;;;5049107;28;20870;-72
2021/12/05 17:26:48;;;;;;;30.37;19.00;;;6.40;99.90;;;;;;5032500;28;20450;-72
2021/12/05 17:29:19;;;;;;;16.10;12.70;;;6.30;99.90;;;;;;5048912;28;20462;-72
2021/12/05 17:31:49;;;;;;;7.80;6.03;;;6.30;99.90;;;;;;5047667;28;20458;-73
2021/12/05 17:34:22;;;;;;;6.57;4.83;;;6.30;99.90;;;;;;5027537;28;20465;-73
2021/12/05 17:37:08;;;;;;;8.60;5.57;;;6.30;99.90;;;;;;5043943;28;20463;-73
2021/12/05 17:39:38;;;;;;;6.87;5.40;;;6.30;99.90;;;;;;5043777;28;20505;-73
2021/12/05 17:42:07;;;;;;;11.73;7.60;;;6.20;99.90;;;;;;5044211;28;20454;-73
2021/12/05 17:44:34;;;;;;;14.73;8.73;;;6.20;99.90;;;;;;5046542;28;20461;-73
2021/12/05 17:47:05;;;;;;;12.63;7.23;;;6.20;99.90;;;;;;5046620;28;20510;-73
2021/12/05 17:49:34;;;;;;;9.47;5.70;;;6.20;99.90;;;;;;5044002;28;20462;-73
2021/12/05 17:52:01;;;;;;;13.40;6.90;;;6.20;99.90;;;;;;5043235;28;20462;-72
2021/12/05 17:54:37;;;;;;;9.20;6.20;;;6.10;99.90;;;;;;5026831;28;20458;-73
2021/12/05 17:57:12;;;;;;;8.23;5.40;;;6.10;99.90;;;;;;5045608;28;20480;-73
2021/12/05 18:02:47;;;;;;;7.07;6.10;;;6.00;99.90;;;;;;5044891;28;20515;-73
2021/12/05 18:05:26;;;;;;;5.83;4.87;;;6.00;99.90;;;;;;5042569;28;20458;-73
2021/12/05 18:07:56;;;;;;;27.67;14.60;;;6.00;99.90;;;;;;5023129;28;20480;-72
2021/12/05 18:10:25;;;;;;;31.43;16.00;;;6.00;99.90;;;;;;5040298;28;20549;-73
2021/12/05 18:12:53;;;;;;;13.90;8.60;;;6.00;99.90;;;;;;5041316;28;20462;-73
2021/12/05 18:15:26;;;;;;;23.67;13.67;;;6.00;99.90;;;;;;5040272;28;20455;-73
2021/12/05 18:17:53;;;;;;;30.60;13.30;;;5.90;99.90;;;;;;5026871;28;20454;-72
2021/12/05 18:20:25;;;;;;;17.97;11.00;;;5.90;99.90;;;;;;5043399;28;20466;-73
2021/12/05 18:22:52;;;;;;;17.10;9.30;;;5.90;99.90;;;;;;5040756;28;20476;-72
2021/12/05 18:25:18;;;;;;;16.53;10.63;;;5.90;99.90;;;;;;5025250;28;20478;-73
2021/12/05 18:27:43;;;;;;;18.90;11.07;;;5.90;99.90;;;;;;5043338;28;20470;-73
2021/12/05 18:30:13;;;;;;;17.97;9.30;;;5.90;99.90;;;;;;5026543;28;20297;-74
2021/12/05 18:32:39;;;;;;;15.83;7.40;;;5.80;99.90;;;;;;5044407;28;20606;-73
2021/12/05 18:35:06;;;;;;;10.50;7.77;;;5.90;99.90;;;;;;5043337;28;20458;-72
2021/12/05 18:37:32;;;;;;;17.73;9.57;;;5.80;99.90;;;;;;5043529;28;20273;-73
2021/12/05 18:39:58;;;;;;;11.50;8.20;;;5.80;99.90;;;;;;5043173;28;20462;-73
2021/12/05 18:42:24;;;;;;;8.70;6.87;;;5.80;99.90;;;;;;5044623;28;20234;-72
2021/12/05 18:44:56;;;;;;;20.00;11.07;;;5.80;99.90;;;;;;5045062;28;20462;-73
2021/12/05 18:47:23;;;;;;;24.70;14.30;;;5.80;99.90;;;;;;5042347;28;20570;-74
2021/12/05 18:49:50;;;;;;;25.20;13.57;;;5.80;99.90;;;;;;5043633;28;20537;-72
2021/12/05 18:52:16;;;;;;;21.50;11.67;;;5.70;99.90;;;;;;5026190;28;20451;-72
2021/12/05 18:54:42;;;;;;;20.23;12.30;;;5.70;99.90;;;;;;5043716;28;20445;-74
2021/12/05 18:57:10;;;;;;;17.67;11.20;;;5.70;99.90;;;;;;5043689;28;20464;-74